Time;durP1;ratioP1;P1;durP2;ratioP2;P2;SDS_P1;SDS_P2;PMS_P1;PMS_P2;Temp;Humidity;BMP_temperature;BMP_pressure;BME280_temperature;BME280_humidity;BME280_pressure;Samples;Min_cycle;Max_cycle;Signal;HPM_P1;HPM_P2
2022/06/02 00:02:22;;;;;;;;;;;;;;;14.67;51.57;100743.84;4996860;27;97848;-66
2022/06/02 00:05:17;;;;;;;;;;;;;;;14.61;51.62;100726.81;4978352;27;126388;-66
2022/06/02 00:08:21;;;;;;;;;;;;;;;14.57;52.00;100731.19;5001826;27;98695;-71
2022/06/02 00:10:52;;;;;;;;;;;;;;;14.53;52.38;100730.16;4998466;27;97841;-70
2022/06/02 00:13:22;;;;;;;;;;;;;;;14.48;52.18;100733.69;4999358;27;101016;-66
2022/06/02 00:15:52;;;;;;;;;;;;;;;14.40;53.49;100742.47;4982089;27;125310;-66
2022/06/02 00:18:41;;;;;;;;;;;;;;;14.27;54.44;100734.19;4980094;28;98429;-70
2022/06/02 00:21:47;;;;;;;;;;;;;;;14.14;54.74;100735.66;4960747;28;98235;-70
2022/06/02 00:24:42;;;;;;;;;;;;;;;14.04;54.46;100758.25;4989017;27;105315;-66
2022/06/02 00:27:39;;;;;;;;;;;;;;;13.98;54.64;100765.59;4985381;27;99356;-65
2022/06/02 00:30:22;;;;;;;;;;;;;;;13.91;55.52;100769.69;4999123;27;128275;-65
2022/06/02 00:33:25;;;;;;;;;;;;;;;13.86;55.00;100772.44;5001232;27;105143;-66
2022/06/02 00:35:58;;;;;;;;;;;;;;;13.81;55.24;100765.19;4969484;27;98238;-65
2022/06/02 00:38:28;;;;;;;;;;;;;;;13.75;55.55;100777.13;4960235;28;98331;-70
2022/06/02 00:40:54;;;;;;;;;;;;;;;13.71;55.53;100792.31;4992739;27;128956;-70
2022/06/02 00:44:01;;;;;;;;;;;;;;;13.70;55.36;100785.28;4990332;27;97965;-69
2022/06/02 00:46:33;;;;;;;;;;;;;;;13.67;55.56;100777.72;5000018;27;102839;-70
2022/06/02 00:49:21;;;;;;;;;;;;;;;13.67;55.44;100789.34;4993737;27;99377;-65
2022/06/02 00:52:19;;;;;;;;;;;;;;;13.68;55.48;100790.19;4961211;27;98250;-65
2022/06/02 00:57:44;;;;;;;;;;;;;;;13.72;55.53;100792.06;4999317;27;97640;-69
2022/06/02 01:00:23;;;;;;;;;;;;;;;13.74;55.73;100792.56;4980351;27;110919;-65
2022/06/02 01:02:53;;;;;;;;;;;;;;;13.78;55.55;100808.28;4979255;27;126850;-70
2022/06/02 01:06:01;;;;;;;;;;;;;;;13.88;55.60;100809.03;4998060;27;98136;-69
2022/06/02 01:08:45;;;;;;;;;;;;;;;13.98;55.41;100813.56;5001819;27;98008;-70
2022/06/02 01:11:49;;;;;;;;;;;;;;;14.02;55.72;100821.94;4999029;27;99251;-69
2022/06/02 01:14:39;;;;;;;;;;;;;;;14.05;55.58;100832.22;4950103;28;100921;-69
2022/06/02 01:17:15;;;;;;;;;;;;;;;14.03;55.46;100829.81;4938423;28;98454;-65
2022/06/02 01:20:03;;;;;;;;;;;;;;;14.02;55.50;100827.34;4962917;27;97932;-69
2022/06/02 01:23:00;;;;;;;;;;;;;;;14.00;55.54;100822.22;4984740;27;99046;-65
2022/06/02 01:25:54;;;;;;;;;;;;;;;13.98;56.02;100824.41;5000750;27;98645;-64
2022/06/02 01:28:31;;;;;;;;;;;;;;;13.93;56.10;100822.53;5000086;27;97919;-70
2022/06/02 01:31:09;;;;;;;;;;;;;;;13.90;56.09;100825.81;4985495;27;116355;-65
2022/06/02 01:33:53;;;;;;;;;;;;;;;13.86;55.83;100822.03;4982168;27;98623;-65
2022/06/02 01:36:43;;;;;;;;;;;;;;;13.84;56.01;100831.56;4981890;27;98318;-69
2022/06/02 01:39:34;;;;;;;;;;;;;;;13.81;55.96;100832.09;4961330;27;127588;-65
2022/06/02 01:42:04;;;;;;;;;;;;;;;13.77;56.03;100828.34;4982588;27;97857;-65
2022/06/02 01:44:39;;;;;;;;;;;;;;;13.71;56.30;100825.63;4984802;27;98418;-65
2022/06/02 01:47:31;;;;;;;;;;;;;;;13.69;56.26;100821.59;4982418;27;113230;-69
2022/06/02 01:50:05;;;;;;;;;;;;;;;13.67;56.33;100823.78;4985284;27;109432;-65
2022/06/02 01:52:43;;;;;;;;;;;;;;;13.67;56.35;100821.06;4982365;27;98183;-64
2022/06/02 01:55:21;;;;;;;;;;;;;;;13.66;56.42;100824.88;4980982;27;98507;-69
2022/06/02 01:58:04;;;;;;;;;;;;;;;13.61;56.55;100823.00;4986965;27;98889;-69
2022/06/02 02:00:32;;;;;;;;;;;;;;;13.59;56.62;100832.47;4971725;28;125680;-69
2022/06/02 02:03:19;;;;;;;;;;;;;;;13.57;56.56;100835.47;4979655;28;98046;-69
2022/06/02 02:05:54;;;;;;;;;;;;;;;13.55;56.83;100836.84;4978752;27;98354;-69
2022/06/02 02:08:44;;;;;;;;;;;;;;;13.53;56.56;100841.72;4980454;27;98349;-69
2022/06/02 02:11:19;;;;;;;;;;;;;;;13.50;56.74;100843.91;4977226;27;129253;-65
2022/06/02 02:14:07;;;;;;;;;;;;;;;13.48;57.13;100847.97;4997621;27;98233;-69
2022/06/02 02:17:00;;;;;;;;;;;;;;;13.41;56.66;100845.56;4998422;27;100452;-64
2022/06/02 02:19:41;;;;;;;;;;;;;;;13.35;57.10;100845.84;4994806;27;125092;-69
2022/06/02 02:22:18;;;;;;;;;;;;;;;13.27;57.27;100841.81;5000910;27;98012;-69
2022/06/02 02:24:56;;;;;;;;;;;;;;;13.19;57.51;100843.16;4983915;27;97851;-65
2022/06/02 02:27:29;;;;;;;;;;;;;;;13.11;57.50;100843.72;4986706;27;98600;-65
2022/06/02 02:30:00;;;;;;;;;;;;;;;13.04;57.44;100845.91;4993365;27;98705;-64
2022/06/02 02:32:46;;;;;;;;;;;;;;;12.99;57.34;100854.03;4979697;27;100898;-69
2022/06/02 02:35:14;;;;;;;;;;;;;;;12.95;57.59;100847.56;4995440;27;97911;-69
2022/06/02 02:37:52;;;;;;;;;;;;;;;12.93;57.54;100842.44;4974875;28;98864;-69
2022/06/02 02:40:38;;;;;;;;;;;;;;;12.92;57.44;100856.22;4990995;27;99013;-64
2022/06/02 02:43:25;;;;;;;;;;;;;;;12.89;57.58;100857.59;4982791;27;103390;-69
2022/06/02 02:46:00;;;;;;;;;;;;;;;12.88;57.58;100865.97;4983174;27;97976;-69
2022/06/02 02:48:26;;;;;;;;;;;;;;;12.86;57.54;100865.44;4995815;27;128607;-64
2022/06/02 02:51:09;;;;;;;;;;;;;;;12.85;57.46;100866.50;4994326;27;98535;-64
2022/06/02 02:53:47;;;;;;;;;;;;;;;12.83;57.72;100872.19;4999074;27;98247;-69
2022/06/02 02:56:41;;;;;;;;;;;;;;;12.79;57.54;100871.13;4965797;28;98123;-69
2022/06/02 02:59:12;;;;;;;;;;;;;;;12.74;57.91;100871.94;4992598;27;98643;-64
2022/06/02 03:02:02;;;;;;;;;;;;;;;12.70;57.82;100880.88;4999862;27;104949;-64
2022/06/02 03:04:36;;;;;;;;;;;;;;;12.63;58.03;100889.25;4981529;27;97758;-64
2022/06/02 03:07:02;;;;;;;;;;;;;;;12.60;57.60;100894.38;4979496;28;98011;-64
2022/06/02 03:09:42;;;;;;;;;;;;;;;12.58;57.91;100891.97;4979275;27;128274;-64
2022/06/02 03:12:15;;;;;;;;;;;;;;;12.60;57.93;100894.38;4962810;28;98358;-64
2022/06/02 03:14:59;;;;;;;;;;;;;;;12.59;58.20;100890.88;4980065;27;121005;-64
2022/06/02 03:18:00;;;;;;;;;;;;;;;12.56;57.71;100888.69;4978862;28;97800;-69
2022/06/02 03:20:52;;;;;;;;;;;;;;;12.53;58.19;100894.66;4962977;28;127338;-64
2022/06/02 03:23:23;;;;;;;;;;;;;;;12.50;58.31;100896.00;4990713;27;99152;-69
2022/06/02 03:25:55;;;;;;;;;;;;;;;12.49;57.90;100899.78;4981091;28;110571;-69
2022/06/02 03:28:28;;;;;;;;;;;;;;;12.47;57.83;100901.97;4995396;27;97995;-64
2022/06/02 03:31:18;;;;;;;;;;;;;;;12.45;57.92;100906.00;5002947;27;98069;-64
2022/06/02 03:33:46;;;;;;;;;;;;;;;12.43;57.84;100914.38;4994714;27;123195;-69
2022/06/02 03:36:31;;;;;;;;;;;;;;;12.44;57.65;100915.19;4982703;27;98022;-69
2022/06/02 03:39:02;;;;;;;;;;;;;;;12.41;57.77;100915.72;4967501;27;97901;-64
2022/06/02 03:41:41;;;;;;;;;;;;;;;12.43;58.10;100921.69;4976567;27;99078;-69
2022/06/02 03:44:25;;;;;;;;;;;;;;;12.45;57.92;100922.22;4985261;27;113261;-64
2022/06/02 03:46:59;;;;;;;;;;;;;;;12.48;58.03;100924.41;4980054;28;98365;-64
2022/06/02 03:49:41;;;;;;;;;;;;;;;12.51;57.80;100931.97;4983154;27;98054;-64
2022/06/02 03:52:46;;;;;;;;;;;;;;;12.55;57.95;100933.06;4963865;28;98534;-64
2022/06/02 03:55:20;;;;;;;;;;;;;;;12.60;58.20;100934.94;4979228;28;124206;-69
2022/06/02 03:58:16;;;;;;;;;;;;;;;12.61;58.15;100940.09;4981926;27;117167;-69
2022/06/02 04:00:54;;;;;;;;;;;;;;;12.65;57.93;100932.25;4993413;27;98352;-64
2022/06/02 04:03:40;;;;;;;;;;;;;;;12.67;57.92;100941.72;5000253;27;98591;-64
2022/06/02 04:06:23;;;;;;;;;;;;;;;12.71;58.02;100942.81;4977790;27;98900;-69
2022/06/02 04:09:00;;;;;;;;;;;;;;;12.75;57.94;100951.19;4980438;28;121139;-64
2022/06/02 04:14:48;;;;;;;;;;;;;;;12.82;58.10;100948.22;4992370;27;98094;-64
2022/06/02 04:17:26;;;;;;;;;;;;;;;12.85;57.91;100950.38;5000296;27;99575;-69
2022/06/02 04:20:34;;;;;;;;;;;;;;;12.90;57.63;100953.09;4993181;27;97968;-64
2022/06/02 04:23:18;;;;;;;;;;;;;;;12.97;57.75;100954.44;4998939;27;97949;-65
2022/06/02 04:26:18;;;;;;;;;;;;;;;13.02;57.82;100957.16;4969943;28;98173;-69
2022/06/02 04:29:09;;;;;;;;;;;;;;;13.09;57.80;100961.47;4976340;27;128261;-71
2022/06/02 04:31:54;;;;;;;;;;;;;;;13.15;57.93;100963.09;4976188;28;98242;-65
2022/06/02 04:35:09;;;;;;;;;;;;;;;13.19;57.90;100969.56;4962802;27;102302;-65
2022/06/02 04:37:56;;;;;;;;;;;;;;;13.26;57.86;100975.56;4975174;27;98390;-65
2022/06/02 04:40:37;;;;;;;;;;;;;;;13.32;57.79;100982.56;4984173;27;98681;-65
2022/06/02 04:43:18;;;;;;;;;;;;;;;13.38;57.72;100978.78;4974809;28;128254;-65
2022/06/02 04:45:53;;;;;;;;;;;;;;;13.45;57.63;100983.94;4980443;27;98054;-70
2022/06/02 04:48:48;;;;;;;;;;;;;;;13.51;57.70;100991.75;4978344;27;98765;-65
2022/06/02 04:51:19;;;;;;;;;;;;;;;13.57;57.73;100989.06;4982137;27;99099;-71
2022/06/02 04:53:56;;;;;;;;;;;;;;;13.64;57.60;100990.38;4977024;27;124090;-69
2022/06/02 04:56:35;;;;;;;;;;;;;;;13.73;57.29;100999.56;4976834;27;97831;-69
2022/06/02 04:59:19;;;;;;;;;;;;;;;13.84;57.19;100999.53;4973318;27;112111;-69
2022/06/02 05:02:02;;;;;;;;;;;;;;;13.93;57.18;100995.97;4990072;27;99219;-65
2022/06/02 05:04:51;;;;;;;;;;;;;;;14.07;57.13;101001.63;4980861;27;98148;-70
2022/06/02 05:07:36;;;;;;;;;;;;;;;14.23;56.79;101003.19;5000133;27;97828;-67
2022/06/02 05:10:06;;;;;;;;;;;;;;;14.39;56.88;101005.81;4989276;27;98398;-65
2022/06/02 05:12:55;;;;;;;;;;;;;;;14.54;56.54;101007.63;4998973;27;99301;-65
2022/06/02 05:15:47;;;;;;;;;;;;;;;14.71;56.05;101008.09;4968116;28;124598;-69
2022/06/02 05:18:17;;;;;;;;;;;;;;;14.89;56.00;101009.31;4980441;28;98064;-69
2022/06/02 05:21:00;;;;;;;;;;;;;;;15.04;55.65;101016.53;4981996;27;98462;-65
2022/06/02 05:24:05;;;;;;;;;;;;;;;15.18;55.50;101015.59;4963797;28;99094;-70
2022/06/02 05:26:45;;;;;;;;;;;;;;;15.42;55.32;101025.72;4959244;27;98208;-69
2022/06/02 05:29:33;;;;;;;;;;;;;;;15.63;54.73;101016.25;4981950;27;98074;-65
2022/06/02 05:32:06;;;;;;;;;;;;;;;15.83;54.38;101020.69;4979319;28;98368;-65
2022/06/02 05:34:48;;;;;;;;;;;;;;;16.04;54.17;101020.47;4986926;27;105790;-65
2022/06/02 05:37:27;;;;;;;;;;;;;;;16.26;53.84;101028.88;4981908;27;98905;-69
2022/06/02 05:40:11;;;;;;;;;;;;;;;16.51;53.06;101024.22;4981141;27;100811;-69
2022/06/02 05:43:12;;;;;;;;;;;;;;;16.77;52.36;101028.19;4979826;27;127466;-69
2022/06/02 05:45:47;;;;;;;;;;;;;;;17.10;52.23;101020.06;4995695;27;126760;-69
2022/06/02 05:48:21;;;;;;;;;;;;;;;17.61;51.52;101024.63;5001136;27;98122;-68
2022/06/02 05:51:10;;;;;;;;;;;;;;;19.96;47.38;101025.50;4979440;27;98084;-69
2022/06/02 05:54:06;;;;;;;;;;;;;;;20.80;47.09;101018.09;4993866;27;98421;-65
2022/06/02 05:56:40;;;;;;;;;;;;;;;24.04;42.04;101031.78;4962771;27;98281;-69
2022/06/02 05:59:12;;;;;;;;;;;;;;;25.86;39.22;101038.94;4959135;28;104841;-64
2022/06/02 06:02:01;;;;;;;;;;;;;;;27.08;37.82;101050.75;4960643;28;97783;-69
2022/06/02 06:04:45;;;;;;;;;;;;;;;26.99;38.23;101045.41;4966879;27;98770;-64
2022/06/02 06:07:40;;;;;;;;;;;;;;;26.79;38.97;101046.59;4981245;27;98581;-64
2022/06/02 06:10:22;;;;;;;;;;;;;;;28.62;36.41;101054.13;4979700;27;98048;-64
2022/06/02 06:13:10;;;;;;;;;;;;;;;30.54;33.27;101048.78;4963361;28;116159;-70
2022/06/02 06:15:55;;;;;;;;;;;;;;;30.32;33.06;101047.88;4977679;27;125747;-69
2022/06/02 06:18:49;;;;;;;;;;;;;;;30.35;33.08;101049.88;4978452;28;121136;-64
2022/06/02 06:21:46;;;;;;;;;;;;;;;31.04;32.13;101049.78;4975715;27;98241;-64
2022/06/02 06:24:21;;;;;;;;;;;;;;;31.46;31.56;101051.09;4998211;27;97778;-70
2022/06/02 06:26:52;;;;;;;;;;;;;;;32.22;30.19;101052.66;4995390;27;98954;-64
2022/06/02 06:30:05;;;;;;;;;;;;;;;31.97;30.39;101049.13;4979767;27;99148;-65
2022/06/02 06:32:35;;;;;;;;;;;;;;;32.42;29.47;101055.03;4945486;27;98039;-69
2022/06/02 06:35:24;;;;;;;;;;;;;;;33.54;27.91;101056.91;4989000;27;97944;-64
2022/06/02 06:37:52;;;;;;;;;;;;;;;32.64;28.61;101059.34;4991278;27;99062;-69
2022/06/02 06:40:49;;;;;;;;;;;;;;;32.06;29.35;101045.94;4980371;27;98460;-64
2022/06/02 06:43:18;;;;;;;;;;;;;;;31.66;29.22;101057.06;4979689;27;97841;-69
2022/06/02 06:45:50;;;;;;;;;;;;;;;31.35;29.19;101055.06;4982851;27;117386;-69
2022/06/02 06:48:32;;;;;;;;;;;;;;;31.08;29.51;101054.56;4980015;27;98624;-63
2022/06/02 06:51:20;;;;;;;;;;;;;;;30.52;29.56;101053.94;4978595;27;99062;-70
2022/06/02 06:53:59;;;;;;;;;;;;;;;29.94;29.52;101051.94;4979868;28;97969;-63
2022/06/02 06:56:57;;;;;;;;;;;;;;;29.80;30.11;101064.53;4961386;28;97633;-70
2022/06/02 06:59:49;;;;;;;;;;;;;;;28.89;30.36;101057.63;4963691;28;98371;-63
2022/06/02 07:02:21;;;;;;;;;;;;;;;28.42;31.35;101063.75;4946480;28;98333;-63
2022/06/02 07:05:14;;;;;;;;;;;;;;;28.26;30.93;101061.13;4950086;28;128815;-63
2022/06/02 07:07:53;;;;;;;;;;;;;;;28.60;30.92;101062.78;4982896;27;97915;-63
2022/06/02 07:10:43;;;;;;;;;;;;;;;28.50;30.95;101055.16;4983386;27;98549;-68
2022/06/02 07:13:26;;;;;;;;;;;;;;;28.61;30.77;101067.19;4980818;27;128310;-63
2022/06/02 07:15:56;;;;;;;;;;;;;;;28.83;30.64;101068.25;4981784;27;97989;-63
2022/06/02 07:18:43;;;;;;;;;;;;;;;29.19;30.19;101062.34;4983915;27;113654;-68
2022/06/02 07:21:31;;;;;;;;;;;;;;;29.48;29.80;101066.22;4967348;28;99173;-68
2022/06/02 07:24:06;;;;;;;;;;;;;;;28.99;29.91;101079.16;4983051;28;125487;-62
2022/06/02 07:27:03;;;;;;;;;;;;;;;29.56;29.17;101065.91;4983454;27;98385;-67
2022/06/02 07:30:25;;;;;;;;;;;;;;;28.79;30.13;101070.16;4984551;27;98044;-62
2022/06/02 07:32:58;;;;;;;;;;;;;;;28.80;29.91;101079.28;4955854;27;100024;-62
2022/06/02 07:36:02;;;;;;;;;;;;;;;29.29;29.55;101079.09;4983722;27;98513;-62
2022/06/02 07:38:53;;;;;;;;;;;;;;;29.70;28.65;101075.56;4982446;27;97926;-62
2022/06/02 07:42:07;;;;;;;;;;;;;;;30.19;28.28;101082.75;5002193;27;98151;-63
2022/06/02 07:44:36;;;;;;;;;;;;;;;29.79;28.99;101087.97;4998756;27;99171;-62
2022/06/02 07:47:36;;;;;;;;;;;;;;;29.47;29.34;101089.59;5003705;27;98792;-68
2022/06/02 07:50:20;;;;;;;;;;;;;;;29.94;28.65;101097.19;5000322;27;98394;-68
2022/06/02 07:53:10;;;;;;;;;;;;;;;30.41;28.21;101087.22;5001618;27;97753;-68
2022/06/02 07:55:46;;;;;;;;;;;;;;;31.48;27.60;101089.69;5002293;27;98122;-68
2022/06/02 07:58:33;;;;;;;;;;;;;;;30.26;28.35;101091.09;4985456;27;122039;-62
2022/06/02 08:01:06;;;;;;;;;;;;;;;31.53;27.43;101092.88;4983918;27;97839;-62
2022/06/02 08:03:41;;;;;;;;;;;;;;;31.72;27.21;101100.06;4981598;28;98084;-63
2022/06/02 08:06:26;;;;;;;;;;;;;;;31.80;26.62;101100.88;4979876;27;126189;-69
2022/06/02 08:09:10;;;;;;;;;;;;;;;32.77;26.14;101097.97;4982279;27;98526;-62
2022/06/02 08:11:47;;;;;;;;;;;;;;;33.58;25.19;101096.78;4962068;28;98256;-62
2022/06/02 08:14:18;;;;;;;;;;;;;;;34.40;24.62;101092.50;4982286;27;118497;-69
2022/06/02 08:16:53;;;;;;;;;;;;;;;34.92;23.87;101087.47;5002169;27;126933;-62
2022/06/02 08:19:26;;;;;;;;;;;;;;;34.69;24.27;101096.56;4999529;27;98238;-63
2022/06/02 08:21:56;;;;;;;;;;;;;;;36.19;22.88;101093.59;4979515;28;105288;-63
2022/06/02 08:24:29;;;;;;;;;;;;;;;34.94;24.01;101092.69;4964492;27;98239;-64
2022/06/02 08:27:01;;;;;;;;;;;;;;;32.96;25.30;101091.94;4980907;28;98638;-68
2022/06/02 08:29:49;;;;;;;;;;;;;;;34.32;24.24;101094.56;4984066;27;98529;-62
2022/06/02 08:32:40;;;;;;;;;;;;;;;35.58;22.91;101094.59;5000397;27;126790;-62
2022/06/02 08:35:26;;;;;;;;;;;;;;;36.72;22.16;101094.59;4993635;27;97863;-63
2022/06/02 08:37:58;;;;;;;;;;;;;;;35.56;21.34;101090.63;4995524;27;98942;-62
2022/06/02 08:40:57;;;;;;;;;;;;;;;33.98;22.85;101096.50;4990860;27;98382;-62
2022/06/02 08:43:23;;;;;;;;;;;;;;;35.08;21.88;101097.31;5001860;27;98423;-69
2022/06/02 08:46:05;;;;;;;;;;;;;;;36.06;21.48;101099.03;5002227;27;97801;-63
2022/06/02 08:48:55;;;;;;;;;;;;;;;37.03;20.47;101103.59;4997508;27;99056;-62
2022/06/02 08:51:39;;;;;;;;;;;;;;;36.40;20.81;101103.63;4996421;27;98612;-62
2022/06/02 08:54:29;;;;;;;;;;;;;;;37.10;20.60;101102.63;4990116;27;98027;-62
2022/06/02 08:57:13;;;;;;;;;;;;;;;37.96;20.02;101097.81;4982730;27;97794;-69
2022/06/02 09:00:06;;;;;;;;;;;;;;;38.17;19.75;101105.69;4993492;27;125373;-62
2022/06/02 09:02:46;;;;;;;;;;;;;;;37.61;20.23;101107.91;4980523;28;99057;-62
2022/06/02 09:05:49;;;;;;;;;;;;;;;35.04;22.33;101099.38;4988453;27;98313;-62
2022/06/02 09:08:17;;;;;;;;;;;;;;;36.13;21.13;101104.50;4987903;27;97807;-63
2022/06/02 09:11:08;;;;;;;;;;;;;;;35.31;21.92;101094.59;4990927;27;98769;-63
2022/06/02 09:14:02;;;;;;;;;;;;;;;35.00;22.26;101105.00;4981432;28;97928;-62
2022/06/02 09:16:42;;;;;;;;;;;;;;;34.06;22.83;101098.03;4981102;27;97973;-70
2022/06/02 09:19:35;;;;;;;;;;;;;;;32.71;23.77;101105.97;4980120;27;116116;-69
2022/06/02 09:22:10;;;;;;;;;;;;;;;31.22;24.98;101105.50;4944895;28;98984;-62
2022/06/02 09:25:01;;;;;;;;;;;;;;;32.50;24.01;101113.22;4965010;27;99341;-62
2022/06/02 09:27:37;;;;;;;;;;;;;;;32.35;24.49;101113.63;4981247;27;98064;-62
2022/06/02 09:30:23;;;;;;;;;;;;;;;31.63;24.70;101110.00;4981744;27;114538;-70
2022/06/02 09:33:34;;;;;;;;;;;;;;;30.70;25.16;101109.66;4997682;27;126562;-69
2022/06/02 09:36:40;;;;;;;;;;;;;;;29.69;25.74;101118.41;5000184;27;98656;-62
2022/06/02 09:39:42;;;;;;;;;;;;;;;29.44;26.12;101124.47;4982278;27;97991;-63
2022/06/02 09:42:34;;;;;;;;;;;;;;;28.38;27.20;101128.25;4944031;28;116804;-63
2022/06/02 09:45:26;;;;;;;;;;;;;;;30.13;25.62;101129.50;4974791;27;98943;-69
2022/06/02 09:47:58;;;;;;;;;;;;;;;32.96;23.95;101139.38;4979520;28;98960;-70
2022/06/02 09:50:38;;;;;;;;;;;;;;;35.24;22.49;101144.31;4984517;27;127566;-70
2022/06/02 09:53:25;;;;;;;;;;;;;;;34.13;23.03;101134.31;4999187;27;98686;-63
2022/06/02 09:55:58;;;;;;;;;;;;;;;32.48;24.34;101131.53;4997226;27;99693;-63
2022/06/02 09:58:31;;;;;;;;;;;;;;;31.20;24.97;101129.34;4988290;27;115983;-63
2022/06/02 10:01:15;;;;;;;;;;;;;;;31.94;24.09;101131.53;4990084;27;97824;-63
2022/06/02 10:04:02;;;;;;;;;;;;;;;33.19;23.56;101136.09;4998655;27;98038;-63
2022/06/02 10:07:06;;;;;;;;;;;;;;;31.44;24.21;101134.25;5001252;27;98509;-70
2022/06/02 10:09:40;;;;;;;;;;;;;;;31.11;24.37;101126.16;4997296;27;98396;-62
2022/06/02 10:12:58;;;;;;;;;;;;;;;32.53;23.41;101138.69;4999336;27;98056;-63
2022/06/02 10:15:46;;;;;;;;;;;;;;;35.38;21.21;101138.50;5000627;27;97997;-69
2022/06/02 10:18:31;;;;;;;;;;;;;;;37.15;20.22;101141.44;4984238;27;98728;-70
2022/06/02 10:21:46;;;;;;;;;;;;;;;36.85;20.93;101132.00;4991001;27;98200;-69
2022/06/02 10:24:25;;;;;;;;;;;;;;;34.47;21.95;101122.38;4958896;27;100032;-63
2022/06/02 10:27:10;;;;;;;;;;;;;;;33.34;22.82;101115.28;4978713;27;98004;-63
2022/06/02 10:29:50;;;;;;;;;;;;;;;35.97;20.73;101118.41;4963119;27;127284;-63
2022/06/02 10:32:29;;;;;;;;;;;;;;;37.90;20.03;101131.31;4978599;27;99237;-69
2022/06/02 10:35:25;;;;;;;;;;;;;;;35.81;21.06;101119.06;4977822;27;100049;-69
2022/06/02 10:38:08;;;;;;;;;;;;;;;33.95;22.42;101120.44;4971710;28;97955;-68
2022/06/02 10:41:06;;;;;;;;;;;;;;;33.87;22.51;101113.31;4980379;27;99380;-69
2022/06/02 10:44:03;;;;;;;;;;;;;;;35.91;21.02;101108.88;4972219;27;98796;-63
2022/06/02 10:46:58;;;;;;;;;;;;;;;37.72;19.84;101120.47;4998983;27;98582;-69
2022/06/02 10:49:47;;;;;;;;;;;;;;;38.80;19.09;101118.47;4981064;27;97859;-64
2022/06/02 10:52:31;;;;;;;;;;;;;;;37.16;20.11;101100.88;4958792;27;97934;-69
2022/06/02 10:55:12;;;;;;;;;;;;;;;36.90;20.14;101101.84;4980618;27;98844;-64
2022/06/02 10:58:03;;;;;;;;;;;;;;;36.51;20.34;101100.63;4992027;27;97895;-63
2022/06/02 11:00:37;;;;;;;;;;;;;;;34.36;21.13;101103.72;4995740;27;98098;-70
2022/06/02 11:03:21;;;;;;;;;;;;;;;33.28;22.10;101102.94;4978424;28;110612;-64
2022/06/02 11:06:24;;;;;;;;;;;;;;;34.93;20.95;101113.47;4983368;27;97975;-69
2022/06/02 11:09:18;;;;;;;;;;;;;;;35.28;21.09;101103.81;4985352;27;97932;-64
2022/06/02 11:12:23;;;;;;;;;;;;;;;34.49;21.42;101106.81;4980034;27;98170;-63
2022/06/02 11:15:03;;;;;;;;;;;;;;;35.97;21.01;101118.41;4976624;27;126735;-63
2022/06/02 11:18:28;;;;;;;;;;;;;;;37.51;19.45;101121.00;4993810;27;98398;-70
2022/06/02 11:21:18;;;;;;;;;;;;;;;38.74;19.50;101118.19;4929783;28;97940;-63
2022/06/02 11:23:52;;;;;;;;;;;;;;;39.39;18.85;101108.66;4936193;28;114487;-69
2022/06/02 11:26:56;;;;;;;;;;;;;;;39.49;18.35;101113.13;4952400;28;98335;-63
2022/06/02 11:29:51;;;;;;;;;;;;;;;38.98;18.98;101109.47;4980337;27;97976;-70
2022/06/02 11:32:42;;;;;;;;;;;;;;;38.31;19.09;101110.13;4978539;28;98457;-64
2022/06/02 11:35:40;;;;;;;;;;;;;;;38.85;18.75;101103.84;4978481;27;98009;-71
2022/06/02 11:38:33;;;;;;;;;;;;;;;38.39;19.35;101103.09;4955932;28;99108;-64
2022/06/02 11:41:30;;;;;;;;;;;;;;;38.64;18.93;101108.06;4979433;27;98529;-64
2022/06/02 11:44:09;;;;;;;;;;;;;;;38.52;19.06;101109.59;4995347;27;98190;-69
2022/06/02 11:46:57;;;;;;;;;;;;;;;38.38;19.02;101097.94;5001735;27;97941;-63
2022/06/02 11:49:47;;;;;;;;;;;;;;;37.95;19.10;101091.41;4994240;27;98247;-70
2022/06/02 11:52:41;;;;;;;;;;;;;;;37.90;19.00;101100.38;4999624;27;98966;-63
2022/06/02 11:55:09;;;;;;;;;;;;;;;38.05;18.74;101093.16;4982823;27;97804;-63
2022/06/02 11:57:52;;;;;;;;;;;;;;;36.28;20.08;101085.41;4987550;27;115145;-63
2022/06/02 12:00:21;;;;;;;;;;;;;;;35.16;20.51;101090.41;4971037;28;98355;-63
2022/06/02 12:03:24;;;;;;;;;;;;;;;34.69;20.99;101092.97;4983192;27;98434;-63
2022/06/02 12:06:18;;;;;;;;;;;;;;;33.90;21.79;101093.72;4983386;27;98007;-63
2022/06/02 12:09:04;;;;;;;;;;;;;;;32.71;21.99;101092.03;4983052;27;98147;-63
2022/06/02 12:11:48;;;;;;;;;;;;;;;34.30;21.01;101096.19;4997012;27;97964;-63
2022/06/02 12:14:20;;;;;;;;;;;;;;;33.11;21.85;101090.66;4983812;27;98643;-63
2022/06/02 12:17:19;;;;;;;;;;;;;;;32.32;22.38;101095.69;5002639;27;97973;-63
2022/06/02 12:20:13;;;;;;;;;;;;;;;31.65;23.15;101102.06;4996253;27;97811;-63
2022/06/02 12:23:08;;;;;;;;;;;;;;;31.96;22.63;101095.72;4993731;27;98425;-63
2022/06/02 12:25:52;;;;;;;;;;;;;;;32.99;22.35;101103.09;4974007;28;98369;-69
2022/06/02 12:28:43;;;;;;;;;;;;;;;33.74;21.84;101104.66;4983972;27;102572;-69
2022/06/02 12:31:32;;;;;;;;;;;;;;;32.74;22.52;101117.13;4998611;27;97780;-69
2022/06/02 12:34:11;;;;;;;;;;;;;;;33.93;21.77;101109.69;5000898;27;128182;-70
2022/06/02 12:37:05;;;;;;;;;;;;;;;34.11;21.87;101108.75;4999921;27;123933;-69
2022/06/02 12:39:54;;;;;;;;;;;;;;;32.56;22.97;101104.41;4966776;27;98174;-63
2022/06/02 12:42:45;;;;;;;;;;;;;;;31.36;23.48;101099.22;4981088;28;98271;-69
2022/06/02 12:45:42;;;;;;;;;;;;;;;30.64;24.01;101113.97;4981414;27;98942;-69
2022/06/02 12:48:33;;;;;;;;;;;;;;;30.56;24.33;101100.03;4982224;27;98478;-63
2022/06/02 12:51:17;;;;;;;;;;;;;;;30.20;24.51;101110.13;4995275;27;97982;-69
2022/06/02 12:54:00;;;;;;;;;;;;;;;29.65;24.80;101109.25;5002368;27;98180;-63
2022/06/02 12:56:40;;;;;;;;;;;;;;;30.46;24.07;101109.13;4986132;27;99115;-69
2022/06/02 12:59:36;;;;;;;;;;;;;;;31.69;23.34;101111.22;4989937;27;126172;-70
2022/06/02 13:02:07;;;;;;;;;;;;;;;32.39;22.72;101106.84;4980359;28;98574;-64
2022/06/02 13:05:24;;;;;;;;;;;;;;;32.87;22.74;101117.47;4982354;28;98358;-69
2022/06/02 13:08:32;;;;;;;;;;;;;;;32.74;22.04;101116.34;4965968;28;98502;-69
2022/06/02 13:11:12;;;;;;;;;;;;;;;31.37;22.78;101102.81;4981415;27;97854;-63
2022/06/02 13:13:50;;;;;;;;;;;;;;;32.22;22.10;101107.63;4981101;27;102111;-68
2022/06/02 13:16:24;;;;;;;;;;;;;;;32.40;21.74;101107.66;4981691;27;114247;-69
2022/06/02 13:19:00;;;;;;;;;;;;;;;32.49;21.92;101103.22;4998224;27;98475;-63
2022/06/02 13:21:39;;;;;;;;;;;;;;;32.54;21.80;101095.66;4999030;27;98319;-69
2022/06/02 13:24:32;;;;;;;;;;;;;;;32.50;22.05;101098.44;4998395;27;127407;-63
2022/06/02 13:27:06;;;;;;;;;;;;;;;32.43;21.59;101099.28;5001452;27;97807;-69
2022/06/02 13:30:09;;;;;;;;;;;;;;;32.35;22.14;101103.25;4981196;27;98170;-68
2022/06/02 13:32:40;;;;;;;;;;;;;;;32.22;22.19;101093.69;4972903;27;98192;-63
2022/06/02 13:35:25;;;;;;;;;;;;;;;32.17;22.16;101099.69;4989539;27;99279;-63
2022/06/02 13:38:18;;;;;;;;;;;;;;;32.03;22.28;101094.94;4992513;27;97972;-63
2022/06/02 13:41:00;;;;;;;;;;;;;;;31.78;22.40;101101.25;4980638;27;98069;-69
2022/06/02 13:43:38;;;;;;;;;;;;;;;31.57;22.68;101090.09;4976404;27;122842;-69
2022/06/02 13:46:39;;;;;;;;;;;;;;;31.51;22.52;101086.91;4995248;27;98070;-63
2022/06/02 13:49:28;;;;;;;;;;;;;;;31.25;22.57;101084.44;4962198;28;116841;-63
2022/06/02 13:52:25;;;;;;;;;;;;;;;30.99;22.96;101091.91;4978023;27;98201;-63
2022/06/02 13:58:18;;;;;;;;;;;;;;;30.25;23.53;101093.09;4992021;27;98019;-69
2022/06/02 14:01:00;;;;;;;;;;;;;;;30.04;23.74;101087.34;4984060;27;97854;-69
2022/06/02 14:03:48;;;;;;;;;;;;;;;29.84;23.52;101093.16;4998323;27;126337;-63
2022/06/02 14:06:18;;;;;;;;;;;;;;;29.59;23.50;101095.72;4998774;27;98437;-63
2022/06/02 14:09:06;;;;;;;;;;;;;;;29.48;24.03;101103.09;4998902;27;112954;-63
2022/06/02 14:11:50;;;;;;;;;;;;;;;29.36;24.41;101089.50;4989664;27;97869;-69
2022/06/02 14:14:45;;;;;;;;;;;;;;;29.14;24.33;101091.22;4981171;27;99111;-63